Time;durP1;ratioP1;P1;durP2;ratioP2;P2;SDS_P1;SDS_P2;PMS_P1;PMS_P2;Temp;Humidity;BMP_temperature;BMP_pressure;BME280_temperature;BME280_humidity;BME280_pressure;Samples;Min_cycle;Max_cycle;Signal;HPM_P1;HPM_P2
2023/01/30 00:00:21;;;;;;;11.53;8.60;;;6.70;99.90;;;;;;5071155;28;20160;-76
2023/01/30 00:02:47;;;;;;;10.67;7.87;;;6.80;99.90;;;;;;5069743;28;20187;-76
2023/01/30 00:05:12;;;;;;;9.57;7.33;;;6.80;99.90;;;;;;5070986;28;21157;-76
2023/01/30 00:07:38;;;;;;;9.90;7.63;;;6.80;99.90;;;;;;5071060;28;20276;-76
2023/01/30 00:10:04;;;;;;;8.80;6.60;;;6.90;99.90;;;;;;5070531;28;20183;-76
2023/01/30 00:12:30;;;;;;;10.25;8.27;;;6.90;99.90;;;;;;5069341;28;20547;-76
2023/01/30 00:14:55;;;;;;;9.13;7.90;;;7.00;99.90;;;;;;5069758;28;20567;-76
2023/01/30 00:17:21;;;;;;;7.70;6.73;;;7.00;99.90;;;;;;5070954;28;20509;-76
2023/01/30 00:19:47;;;;;;;10.63;6.20;;;7.10;99.90;;;;;;5052527;28;20194;-76
2023/01/30 00:22:12;;;;;;;9.47;7.60;;;7.10;99.90;;;;;;5070279;28;20600;-76
2023/01/30 00:24:38;;;;;;;11.33;7.20;;;7.10;99.90;;;;;;5069746;28;20212;-76
2023/01/30 00:27:04;;;;;;;9.80;7.77;;;7.10;99.90;;;;;;5069367;28;20226;-76
2023/01/30 00:29:29;;;;;;;9.10;7.00;;;7.10;99.90;;;;;;5071590;28;20177;-76
2023/01/30 00:31:55;;;;;;;9.87;7.00;;;7.20;99.90;;;;;;5070372;28;20621;-76
2023/01/30 00:34:21;;;;;;;7.83;6.63;;;7.20;99.90;;;;;;5070862;28;20210;-77
2023/01/30 00:36:47;;;;;;;11.77;8.23;;;7.30;99.90;;;;;;5071182;28;20195;-77
2023/01/30 00:39:15;;;;;;;8.60;6.40;;;7.30;99.90;;;;;;5074003;28;20184;-76
2023/01/30 00:47:09;;;;;;;8.55;6.10;;;7.40;99.90;;;;;;5073017;28;20180;-76
2023/01/30 00:49:36;;;;;;;8.70;6.73;;;7.40;99.90;;;;;;5073168;28;20245;-76
2023/01/30 00:52:03;;;;;;;12.00;7.95;;;7.40;99.90;;;;;;5056057;28;20176;-76
2023/01/30 00:54:29;;;;;;;12.30;9.25;;;7.50;99.90;;;;;;5074334;28;20195;-77
2023/01/30 00:56:57;;;;;;;10.88;8.80;;;7.50;99.90;;;;;;5073290;28;20172;-76
2023/01/30 00:59:24;;;;;;;11.95;8.60;;;7.50;99.90;;;;;;5072545;28;20176;-76
2023/01/30 01:01:50;;;;;;;13.88;10.27;;;7.50;99.90;;;;;;5072690;28;20173;-76
2023/01/30 01:04:16;;;;;;;12.47;8.40;;;7.50;99.90;;;;;;5073064;28;20176;-76
2023/01/30 01:06:41;;;;;;;15.33;10.30;;;7.50;99.90;;;;;;5060244;28;20200;-76
2023/01/30 01:09:08;;;;;;;13.50;9.60;;;7.50;99.90;;;;;;5071920;28;20620;-76
2023/01/30 01:11:34;;;;;;;12.77;9.95;;;7.50;99.90;;;;;;5072522;28;20257;-76
2023/01/30 01:14:01;;;;;;;10.43;7.43;;;7.50;99.90;;;;;;5055672;28;20200;-76
2023/01/30 01:16:29;;;;;;;11.13;8.73;;;7.50;99.90;;;;;;5068646;28;20566;-77
2023/01/30 01:18:57;;;;;;;12.10;8.27;;;7.50;99.90;;;;;;5065673;28;20170;-77
2023/01/30 01:21:23;;;;;;;9.90;8.13;;;7.60;99.90;;;;;;5055536;28;20674;-77
2023/01/30 01:23:54;;;;;;;13.63;9.50;;;7.60;99.90;;;;;;5072054;28;20172;-77
2023/01/30 01:26:20;;;;;;;12.63;9.10;;;7.60;99.90;;;;;;5073702;28;20196;-77
2023/01/30 01:28:46;;;;;;;11.70;8.67;;;7.60;99.90;;;;;;5055172;28;20176;-76
2023/01/30 01:31:16;;;;;;;15.30;9.55;;;7.70;99.90;;;;;;5071926;28;20582;-76
2023/01/30 01:33:41;;;;;;;12.48;7.22;;;7.70;99.90;;;;;;5072344;28;20211;-76
2023/01/30 01:36:08;;;;;;;10.57;8.73;;;7.60;99.90;;;;;;5055339;28;20185;-76
2023/01/30 01:38:34;;;;;;;15.82;9.93;;;7.70;99.90;;;;;;5055155;28;20709;-77
2023/01/30 01:41:04;;;;;;;14.50;9.90;;;7.70;99.90;;;;;;5072071;28;20168;-76
2023/01/30 01:43:57;;;;;;;11.98;9.50;;;7.70;99.90;;;;;;5058657;28;20652;-76
2023/01/30 01:46:26;;;;;;;12.70;9.02;;;7.70;99.90;;;;;;5055178;28;20192;-76
2023/01/30 01:48:56;;;;;;;12.60;8.68;;;7.70;99.90;;;;;;5054382;28;20632;-77
2023/01/30 01:51:25;;;;;;;11.57;8.63;;;7.70;99.90;;;;;;5071491;28;20667;-76
2023/01/30 01:53:57;;;;;;;11.18;7.72;;;7.70;99.90;;;;;;5071904;28;20563;-76
2023/01/30 01:56:23;;;;;;;13.30;9.82;;;7.70;99.90;;;;;;5071764;28;20188;-76
2023/01/30 01:59:02;;;;;;;11.63;8.18;;;7.70;99.90;;;;;;5054791;28;20172;-76
2023/01/30 02:01:28;;;;;;;10.50;8.55;;;7.70;99.90;;;;;;5066453;28;20187;-76
2023/01/30 02:03:57;;;;;;;9.68;7.43;;;7.70;99.90;;;;;;5051585;28;20173;-76
2023/01/30 02:06:23;;;;;;;10.25;8.05;;;7.70;99.90;;;;;;5034795;28;20208;-76
2023/01/30 02:08:56;;;;;;;10.80;8.20;;;7.70;99.90;;;;;;5034407;28;20177;-76
2023/01/30 02:11:32;;;;;;;12.68;9.20;;;7.70;99.90;;;;;;5051167;28;20599;-77
2023/01/30 02:13:59;;;;;;;12.15;9.18;;;7.70;99.90;;;;;;5052837;28;20200;-76
2023/01/30 02:16:25;;;;;;;12.50;8.75;;;7.70;99.90;;;;;;5051005;28;20208;-76
2023/01/30 02:18:51;;;;;;;8.87;7.40;;;7.70;99.90;;;;;;5051151;28;20173;-76
2023/01/30 02:21:22;;;;;;;11.93;8.27;;;7.70;99.90;;;;;;5053775;28;20180;-76
2023/01/30 02:24:04;;;;;;;13.43;9.43;;;7.70;99.90;;;;;;5051127;28;20177;-76
2023/01/30 02:26:52;;;;;;;13.27;9.52;;;7.70;99.90;;;;;;5034863;28;20196;-76
2023/01/30 02:29:57;;;;;;;11.50;8.40;;;7.70;99.90;;;;;;5034272;28;20165;-76
2023/01/30 02:32:33;;;;;;;12.18;8.07;;;7.70;99.90;;;;;;5052018;28;20207;-76
2023/01/30 02:35:36;;;;;;;10.48;7.53;;;7.70;99.90;;;;;;5034743;28;20203;-76
2023/01/30 02:38:14;;;;;;;10.88;8.18;;;7.70;99.90;;;;;;5042195;28;20185;-76
2023/01/30 02:41:05;;;;;;;13.40;8.88;;;7.70;99.90;;;;;;5034088;28;20184;-76
2023/01/30 02:44:09;;;;;;;11.68;8.20;;;7.70;99.90;;;;;;5033974;28;20191;-76
2023/01/30 02:46:55;;;;;;;12.98;8.40;;;7.70;99.90;;;;;;5033067;28;20201;-76
2023/01/30 02:49:38;;;;;;;12.65;8.18;;;7.70;99.90;;;;;;5050225;28;20227;-76
2023/01/30 02:52:07;;;;;;;11.70;8.82;;;7.70;99.90;;;;;;5033772;28;20181;-76
2023/01/30 02:54:33;;;;;;;11.75;8.25;;;7.70;99.90;;;;;;5034062;28;20692;-76
2023/01/30 02:57:01;;;;;;;12.75;8.63;;;7.70;99.90;;;;;;5052078;28;20221;-77
2023/01/30 02:59:39;;;;;;;11.35;8.93;;;7.70;99.90;;;;;;5034812;28;20238;-76
2023/01/30 03:02:11;;;;;;;11.40;8.98;;;7.70;99.90;;;;;;5034240;28;20165;-76
2023/01/30 03:05:14;;;;;;;12.93;7.65;;;7.70;99.90;;;;;;5033583;28;20177;-76
2023/01/30 03:08:27;;;;;;;11.40;8.18;;;7.70;99.90;;;;;;5050737;28;20176;-76
2023/01/30 03:11:03;;;;;;;11.75;7.90;;;7.70;99.90;;;;;;4992853;28;20206;-77
2023/01/30 03:13:54;;;;;;;9.57;7.05;;;7.70;99.90;;;;;;5047496;28;20212;-76
2023/01/30 03:16:30;;;;;;;10.52;7.85;;;7.70;99.90;;;;;;5050061;28;20208;-76
2023/01/30 03:18:58;;;;;;;15.55;10.35;;;7.70;99.90;;;;;;5033444;28;20171;-77
2023/01/30 03:21:24;;;;;;;12.20;9.13;;;7.70;99.90;;;;;;5032947;28;20175;-76
2023/01/30 03:23:51;;;;;;;13.75;9.50;;;7.70;99.90;;;;;;5033717;28;20216;-76
2023/01/30 03:26:22;;;;;;;10.10;8.32;;;7.70;99.90;;;;;;5017048;28;20195;-77
2023/01/30 03:28:51;;;;;;;12.95;9.18;;;7.70;99.90;;;;;;5049834;28;20191;-77
2023/01/30 03:31:18;;;;;;;13.90;8.98;;;7.70;99.90;;;;;;5049694;28;20169;-77
2023/01/30 03:33:44;;;;;;;13.07;10.15;;;7.70;99.90;;;;;;5049938;28;20211;-76
2023/01/30 03:36:11;;;;;;;15.10;9.52;;;7.70;99.90;;;;;;5034981;28;20211;-76
2023/01/30 03:38:37;;;;;;;13.00;9.53;;;7.70;99.90;;;;;;5049723;28;20176;-76
2023/01/30 03:41:04;;;;;;;11.02;7.53;;;7.70;99.90;;;;;;5049518;28;21162;-77
2023/01/30 03:43:31;;;;;;;9.38;7.75;;;7.70;99.90;;;;;;5033269;28;20203;-76
2023/01/30 03:45:56;;;;;;;13.63;9.70;;;7.80;99.90;;;;;;5032904;28;20189;-77
2023/01/30 03:48:22;;;;;;;14.50;10.30;;;7.80;99.90;;;;;;5033239;28;20195;-77
2023/01/30 03:50:48;;;;;;;13.87;8.73;;;7.80;99.90;;;;;;5050228;28;20629;-76
2023/01/30 03:53:15;;;;;;;12.95;9.85;;;7.80;99.90;;;;;;5049900;28;20275;-77
2023/01/30 03:55:43;;;;;;;12.27;9.80;;;7.80;99.90;;;;;;5033073;28;20342;-76
2023/01/30 03:58:09;;;;;;;11.25;8.75;;;7.80;99.90;;;;;;5032785;28;20690;-77
2023/01/30 04:00:34;;;;;;;11.87;8.90;;;7.80;99.90;;;;;;5049571;28;20641;-76
2023/01/30 04:03:01;;;;;;;10.43;8.40;;;7.80;99.90;;;;;;5032624;28;20523;-76
2023/01/30 04:05:27;;;;;;;12.00;8.50;;;7.90;99.90;;;;;;5033410;28;20239;-76
2023/01/30 04:07:58;;;;;;;9.35;7.93;;;7.90;99.90;;;;;;5032912;28;20580;-76
2023/01/30 04:10:25;;;;;;;10.15;7.90;;;7.90;99.90;;;;;;5049263;28;20177;-77
2023/01/30 04:12:51;;;;;;;11.32;8.23;;;7.90;99.90;;;;;;5056790;28;20658;-76
2023/01/30 04:15:18;;;;;;;8.30;7.40;;;7.90;99.90;;;;;;5037116;28;20669;-75
2023/01/30 04:18:04;;;;;;;12.95;7.32;;;7.90;99.90;;;;;;5039565;28;20578;-76
2023/01/30 04:21:05;;;;;;;7.13;6.07;;;8.00;99.90;;;;;;5016062;28;20188;-77
2023/01/30 04:23:35;;;;;;;9.52;7.38;;;8.00;99.90;;;;;;5032935;28;20188;-76
2023/01/30 04:26:02;;;;;;;9.80;7.80;;;8.00;99.90;;;;;;5053638;28;20568;-76
2023/01/30 04:28:28;;;;;;;9.30;6.72;;;8.00;99.90;;;;;;5053923;28;20572;-78
2023/01/30 04:30:54;;;;;;;9.43;7.27;;;8.00;99.90;;;;;;5037049;28;20231;-79
2023/01/30 04:33:40;;;;;;;13.60;8.10;;;8.00;99.90;;;;;;5052965;28;20220;-78
2023/01/30 04:36:08;;;;;;;9.13;7.60;;;8.00;99.90;;;;;;5037025;28;20213;-79
2023/01/30 04:38:35;;;;;;;13.48;8.75;;;8.00;99.90;;;;;;5053088;28;20173;-79
2023/01/30 04:41:02;;;;;;;12.13;8.43;;;8.00;99.90;;;;;;5053579;28;20164;-79
2023/01/30 04:43:31;;;;;;;10.30;7.00;;;8.10;99.90;;;;;;5036754;28;20235;-79
2023/01/30 04:46:15;;;;;;;9.45;6.97;;;8.10;99.90;;;;;;5053397;28;20549;-79
2023/01/30 04:48:41;;;;;;;10.43;7.55;;;8.10;99.90;;;;;;5053568;28;20177;-80
2023/01/30 04:51:08;;;;;;;13.48;8.05;;;8.10;99.90;;;;;;5038462;28;20184;-79
2023/01/30 04:53:36;;;;;;;9.32;6.38;;;8.10;99.90;;;;;;5036231;28;20206;-79
2023/01/30 04:56:02;;;;;;;11.18;7.95;;;8.10;99.90;;;;;;5036646;28;20668;-79
2023/01/30 04:58:28;;;;;;;9.33;7.90;;;8.10;99.90;;;;;;5036956;28;20177;-79
2023/01/30 05:00:54;;;;;;;10.43;8.40;;;8.10;99.90;;;;;;5052240;28;20657;-79
2023/01/30 05:03:19;;;;;;;10.77;8.60;;;8.10;99.90;;;;;;5052958;28;20575;-79
2023/01/30 05:05:46;;;;;;;14.00;9.53;;;8.10;99.90;;;;;;5052821;28;20216;-79
2023/01/30 05:08:12;;;;;;;9.90;7.70;;;8.10;99.90;;;;;;5053003;28;20177;-79
2023/01/30 05:10:37;;;;;;;10.73;8.17;;;8.10;99.90;;;;;;5053474;28;20172;-79
2023/01/30 05:13:04;;;;;;;9.93;7.57;;;8.10;99.90;;;;;;5053865;28;21206;-79
2023/01/30 05:15:30;;;;;;;11.38;8.00;;;8.10;99.90;;;;;;5053478;28;20257;-79
2023/01/30 05:17:56;;;;;;;11.13;8.25;;;8.10;99.90;;;;;;5054060;28;20176;-79
2023/01/30 05:20:22;;;;;;;10.57;8.37;;;8.10;99.90;;;;;;5053542;28;20165;-78
2023/01/30 05:22:48;;;;;;;11.67;9.00;;;8.10;99.90;;;;;;5051358;28;20580;-79
2023/01/30 05:25:14;;;;;;;10.60;8.10;;;8.10;99.90;;;;;;5053768;28;20618;-79
2023/01/30 05:27:39;;;;;;;11.07;8.00;;;8.00;99.90;;;;;;5056278;28;20227;-78
2023/01/30 05:30:06;;;;;;;9.07;7.60;;;8.10;99.90;;;;;;5051967;28;20185;-78
2023/01/30 05:32:31;;;;;;;14.63;9.90;;;8.00;99.90;;;;;;5053092;28;20169;-78
2023/01/30 05:34:57;;;;;;;12.00;7.90;;;8.00;99.90;;;;;;5052445;28;20192;-78
2023/01/30 05:37:23;;;;;;;9.70;7.90;;;8.00;99.90;;;;;;5052365;28;20162;-78
2023/01/30 05:39:49;;;;;;;10.60;7.03;;;8.00;99.90;;;;;;5052022;28;20203;-78
2023/01/30 05:42:15;;;;;;;10.73;7.80;;;8.00;99.90;;;;;;5053100;28;20173;-78
2023/01/30 05:44:40;;;;;;;11.77;6.97;;;8.00;99.90;;;;;;5051993;28;20181;-78
2023/01/30 05:47:06;;;;;;;9.00;6.93;;;7.90;99.90;;;;;;5018920;28;20632;-78
2023/01/30 05:49:32;;;;;;;9.20;6.80;;;7.90;99.90;;;;;;5053103;28;20172;-78
2023/01/30 05:51:57;;;;;;;9.40;6.67;;;7.90;99.90;;;;;;5051552;28;20215;-78
2023/01/30 05:54:23;;;;;;;8.77;7.40;;;7.90;99.90;;;;;;5053344;28;20196;-78
2023/01/30 05:56:50;;;;;;;10.20;8.23;;;7.90;99.90;;;;;;5052708;28;20231;-77
2023/01/30 05:59:17;;;;;;;8.25;6.00;;;7.90;99.90;;;;;;5052595;28;20173;-78
2023/01/30 06:01:43;;;;;;;10.70;7.97;;;7.90;99.90;;;;;;5052034;28;20586;-78
2023/01/30 06:04:09;;;;;;;10.93;6.77;;;7.90;99.90;;;;;;5056919;28;20256;-78
2023/01/30 06:06:34;;;;;;;8.87;6.70;;;7.80;99.90;;;;;;5053416;28;20757;-78
2023/01/30 06:09:00;;;;;;;8.23;6.63;;;7.80;99.90;;;;;;5051035;28;21162;-78
2023/01/30 06:11:28;;;;;;;8.38;7.25;;;7.80;99.90;;;;;;5051712;28;20230;-78
2023/01/30 06:13:53;;;;;;;9.07;6.17;;;7.80;99.90;;;;;;5052619;28;20303;-78
2023/01/30 06:16:19;;;;;;;8.17;6.00;;;7.90;99.90;;;;;;5052812;28;20205;-78
2023/01/30 06:18:48;;;;;;;8.13;5.97;;;7.80;99.90;;;;;;5052142;28;20165;-78
2023/01/30 06:21:14;;;;;;;7.75;6.05;;;7.90;99.90;;;;;;5052809;28;20219;-78
2023/01/30 06:23:41;;;;;;;7.50;5.40;;;7.90;99.90;;;;;;5052733;28;20177;-78
2023/01/30 06:26:07;;;;;;;6.70;4.97;;;7.90;99.90;;;;;;5051689;28;20624;-77
2023/01/30 06:28:33;;;;;;;7.43;5.30;;;7.90;99.90;;;;;;5050834;28;20176;-77
2023/01/30 06:30:59;;;;;;;5.67;4.83;;;7.90;99.90;;;;;;5051494;28;20191;-76
2023/01/30 06:33:24;;;;;;;12.73;5.80;;;7.90;99.90;;;;;;5052315;28;21171;-76
2023/01/30 06:35:51;;;;;;;7.73;5.77;;;7.90;99.90;;;;;;5050936;28;20192;-77
2023/01/30 06:38:17;;;;;;;7.10;5.40;;;7.90;99.90;;;;;;5052555;28;20239;-76
2023/01/30 06:40:48;;;;;;;7.35;4.72;;;8.00;99.90;;;;;;5054228;28;20176;-77
2023/01/30 06:43:15;;;;;;;6.18;4.88;;;7.90;99.90;;;;;;5051869;28;20179;-77
2023/01/30 06:45:41;;;;;;;5.55;5.05;;;8.00;99.90;;;;;;5050824;28;20192;-77
2023/01/30 06:48:07;;;;;;;7.57;5.95;;;8.00;99.90;;;;;;5052298;28;20556;-77
2023/01/30 06:50:33;;;;;;;5.70;3.88;;;8.00;99.90;;;;;;5051859;28;20177;-77
2023/01/30 06:53:01;;;;;;;6.13;4.60;;;8.00;99.90;;;;;;5051949;28;20269;-76
2023/01/30 06:55:27;;;;;;;5.82;5.22;;;8.00;99.90;;;;;;5059855;28;20654;-78
2023/01/30 06:58:08;;;;;;;5.30;4.33;;;8.00;99.90;;;;;;5063532;28;20212;-78
2023/01/30 07:00:34;;;;;;;5.95;5.20;;;8.00;99.90;;;;;;5066312;28;20710;-78
2023/01/30 07:03:00;;;;;;;5.93;4.88;;;8.10;99.90;;;;;;5051359;28;20181;-78
2023/01/30 07:05:29;;;;;;;5.70;4.60;;;8.10;99.90;;;;;;5051422;28;20193;-77
2023/01/30 07:07:55;;;;;;;5.03;4.30;;;8.10;99.90;;;;;;5050669;28;20177;-77
2023/01/30 07:10:21;;;;;;;7.97;4.93;;;8.10;99.90;;;;;;5033554;28;20197;-77
2023/01/30 07:12:47;;;;;;;4.95;4.45;;;8.20;99.90;;;;;;5051420;28;20547;-79
2023/01/30 07:15:13;;;;;;;6.03;5.20;;;8.20;99.90;;;;;;5051708;28;20266;-78
2023/01/30 07:17:40;;;;;;;6.78;4.65;;;8.20;99.90;;;;;;5050674;28;20192;-79
2023/01/30 07:20:08;;;;;;;6.88;4.45;;;8.20;99.90;;;;;;5052223;28;20264;-80
2023/01/30 07:22:33;;;;;;;4.55;4.05;;;8.20;99.90;;;;;;5050847;28;20263;-79
2023/01/30 07:24:59;;;;;;;5.90;5.30;;;8.20;99.90;;;;;;5050544;28;20656;-78
2023/01/30 07:27:25;;;;;;;5.17;4.10;;;8.20;99.90;;;;;;5049757;28;20637;-78
2023/01/30 07:29:51;;;;;;;6.13;4.57;;;8.20;99.90;;;;;;5050981;28;20180;-78
2023/01/30 07:32:18;;;;;;;6.60;4.60;;;8.20;99.90;;;;;;5048299;28;20230;-78
2023/01/30 07:34:45;;;;;;;4.97;4.15;;;8.20;99.90;;;;;;5051324;28;20228;-78
2023/01/30 07:37:10;;;;;;;6.20;4.72;;;8.20;99.90;;;;;;5049760;28;20172;-79
2023/01/30 07:39:36;;;;;;;6.57;4.90;;;8.20;99.90;;;;;;5050647;28;20165;-79
2023/01/30 07:42:02;;;;;;;5.30;4.80;;;8.20;99.90;;;;;;5050672;28;20535;-79
2023/01/30 07:44:28;;;;;;;4.65;4.25;;;8.30;99.90;;;;;;5051496;28;20227;-79
2023/01/30 07:46:54;;;;;;;5.10;4.50;;;8.30;99.90;;;;;;5049688;28;20189;-80
2023/01/30 07:49:20;;;;;;;6.37;4.10;;;8.30;99.90;;;;;;5050278;28;20485;-79
2023/01/30 07:51:45;;;;;;;5.77;4.87;;;8.30;99.90;;;;;;5051629;28;20646;-79
2023/01/30 07:54:11;;;;;;;4.93;4.37;;;8.30;99.90;;;;;;5033505;28;20638;-79
2023/01/30 07:56:37;;;;;;;7.77;6.30;;;8.30;99.90;;;;;;5050857;28;20561;-79
2023/01/30 07:59:04;;;;;;;5.50;5.00;;;8.30;99.90;;;;;;5033526;28;20180;-78
2023/01/30 08:01:31;;;;;;;5.60;4.85;;;8.40;99.90;;;;;;5051469;28;20188;-80
2023/01/30 08:03:57;;;;;;;6.10;5.50;;;8.40;99.90;;;;;;5051343;28;20242;-78
2023/01/30 08:06:23;;;;;;;5.95;4.97;;;8.40;99.90;;;;;;5052755;28;20197;-78
2023/01/30 08:08:48;;;;;;;7.87;5.93;;;8.50;99.90;;;;;;5050263;28;20287;-80
2023/01/30 08:11:14;;;;;;;6.23;4.90;;;8.50;99.90;;;;;;5050471;28;20538;-78
2023/01/30 08:13:40;;;;;;;8.17;5.90;;;8.50;99.90;;;;;;5050307;28;20197;-79
2023/01/30 08:16:07;;;;;;;6.73;5.60;;;8.50;99.90;;;;;;5051192;28;20650;-77
2023/01/30 08:18:33;;;;;;;5.57;4.20;;;8.60;99.90;;;;;;5033196;28;20192;-77
2023/01/30 08:21:04;;;;;;;5.75;4.63;;;8.60;99.90;;;;;;5045537;28;20315;-77
2023/01/30 08:23:31;;;;;;;5.32;3.35;;;8.70;99.90;;;;;;5050999;28;20177;-79
2023/01/30 08:25:58;;;;;;;6.03;4.95;;;8.70;99.90;;;;;;5033200;28;20283;-80
2023/01/30 08:28:25;;;;;;;4.65;4.00;;;8.70;99.90;;;;;;5051045;28;20641;-79
2023/01/30 08:30:52;;;;;;;6.88;4.07;;;8.80;99.90;;;;;;5050641;28;20169;-80
2023/01/30 08:33:18;;;;;;;8.05;5.45;;;8.80;99.90;;;;;;5052729;28;20205;-80
2023/01/30 08:35:44;;;;;;;5.55;4.38;;;8.80;99.90;;;;;;5051339;28;20280;-81
2023/01/30 08:38:10;;;;;;;7.95;5.00;;;8.90;99.90;;;;;;5051130;28;20165;-80
2023/01/30 08:40:36;;;;;;;8.43;6.82;;;8.90;99.90;;;;;;5049912;28;20215;-81
2023/01/30 08:43:03;;;;;;;8.23;5.40;;;9.00;99.90;;;;;;5051497;28;20204;-80
2023/01/30 08:45:29;;;;;;;7.53;5.70;;;9.00;99.90;;;;;;5051432;28;20199;-80
2023/01/30 08:47:59;;;;;;;5.93;4.90;;;9.00;99.90;;;;;;5034166;28;20181;-81
2023/01/30 08:50:25;;;;;;;8.07;5.35;;;9.00;99.90;;;;;;5050520;28;20571;-80
2023/01/30 08:52:50;;;;;;;7.73;5.30;;;9.00;99.90;;;;;;5032097;28;20455;-78
2023/01/30 08:55:17;;;;;;;7.60;6.30;;;9.10;99.90;;;;;;5050068;28;20242;-79
2023/01/30 08:57:43;;;;;;;9.82;5.72;;;9.20;99.90;;;;;;5050683;28;20188;-79
2023/01/30 09:00:09;;;;;;;8.37;5.90;;;9.20;99.90;;;;;;5054666;28;20181;-79
2023/01/30 09:02:35;;;;;;;6.40;5.10;;;9.30;99.90;;;;;;5036281;28;20618;-79
2023/01/30 09:05:02;;;;;;;6.10;4.60;;;9.40;99.90;;;;;;5054183;28;20231;-81
2023/01/30 09:07:28;;;;;;;6.90;4.50;;;9.50;99.90;;;;;;5051625;28;20607;-80
2023/01/30 09:09:54;;;;;;;5.43;4.40;;;9.60;99.90;;;;;;5032801;28;20269;-80
2023/01/30 09:12:20;;;;;;;8.45;5.05;;;9.70;99.90;;;;;;5053555;28;20196;-80
2023/01/30 09:14:45;;;;;;;7.07;4.27;;;9.80;99.90;;;;;;5035660;28;20209;-78
2023/01/30 09:17:11;;;;;;;15.57;5.10;;;9.90;99.90;;;;;;5051921;28;20579;-79
2023/01/30 09:19:37;;;;;;;11.35;4.22;;;9.90;99.90;;;;;;5052624;28;20687;-79
2023/01/30 09:22:04;;;;;;;5.50;3.90;;;9.90;99.90;;;;;;5051394;28;20203;-79
2023/01/30 09:24:30;;;;;;;10.07;4.45;;;10.00;99.90;;;;;;5055027;28;20659;-79
2023/01/30 09:26:57;;;;;;;5.13;2.80;;;10.00;99.90;;;;;;5057870;28;20201;-78
2023/01/30 09:29:27;;;;;;;11.73;3.90;;;10.00;99.90;;;;;;5053532;28;20673;-79
2023/01/30 09:31:57;;;;;;;5.28;3.00;;;10.10;99.90;;;;;;5040379;28;20184;-79
2023/01/30 09:34:27;;;;;;;10.00;3.00;;;10.20;99.90;;;;;;5061986;28;20193;-78
2023/01/30 09:37:00;;;;;;;8.05;2.60;;;10.30;99.90;;;;;;5061528;28;20208;-79
2023/01/30 09:39:27;;;;;;;6.15;2.17;;;10.50;99.90;;;;;;5064001;28;20296;-80
2023/01/30 09:42:24;;;;;;;11.45;3.13;;;10.60;99.90;;;;;;5035966;28;20181;-79
2023/01/30 09:45:21;;;;;;;7.13;1.85;;;10.60;99.90;;;;;;5059243;28;20184;-80
2023/01/30 09:48:12;;;;;;;14.30;2.45;;;10.70;99.90;;;;;;5054106;28;20681;-78
2023/01/30 09:50:44;;;;;;;8.20;2.90;;;10.80;99.90;;;;;;5051077;28;20196;-80
2023/01/30 09:53:19;;;;;;;9.10;2.47;;;10.80;99.90;;;;;;5052622;28;20216;-80
2023/01/30 09:55:46;;;;;;;10.57;2.90;;;10.80;99.90;;;;;;5032649;28;20201;-79
2023/01/30 09:58:23;;;;;;;9.95;1.85;;;10.90;99.90;;;;;;5033369;28;20561;-80
2023/01/30 10:00:58;;;;;;;13.10;2.20;;;10.80;99.90;;;;;;5031275;28;20189;-80
2023/01/30 10:03:38;;;;;;;10.02;2.03;;;10.80;99.90;;;;;;5047216;28;20176;-79
2023/01/30 10:06:09;;;;;;;11.70;2.42;;;10.80;99.90;;;;;;5050104;28;20203;-79
2023/01/30 10:08:50;;;;;;;6.28;2.08;;;10.90;99.90;;;;;;5052124;28;20242;-79
2023/01/30 10:11:46;;;;;;;6.75;1.63;;;10.90;99.90;;;;;;5030766;28;20170;-79
2023/01/30 10:14:30;;;;;;;9.65;2.90;;;11.00;99.90;;;;;;5031581;28;20231;-78
2023/01/30 10:17:18;;;;;;;9.95;2.30;;;11.10;99.90;;;;;;5032365;28;20189;-77
2023/01/30 10:20:13;;;;;;;7.03;1.90;;;11.20;99.90;;;;;;5051052;28;20556;-79
2023/01/30 10:23:17;;;;;;;6.55;2.25;;;11.30;99.90;;;;;;5033888;28;20232;-77
2023/01/30 10:25:54;;;;;;;10.23;2.78;;;11.30;99.90;;;;;;5041937;28;20688;-79
2023/01/30 10:28:31;;;;;;;6.82;2.72;;;11.40;99.90;;;;;;5053843;28;20165;-80
2023/01/30 10:31:11;;;;;;;11.05;2.40;;;11.40;99.90;;;;;;5053213;28;20633;-80
2023/01/30 10:33:51;;;;;;;5.20;1.80;;;11.40;99.90;;;;;;5051758;28;20216;-80
2023/01/30 10:36:40;;;;;;;6.97;2.15;;;11.40;99.90;;;;;;5034340;28;20192;-80
2023/01/30 10:39:38;;;;;;;8.23;3.10;;;11.40;99.90;;;;;;5002214;28;20229;-79
2023/01/30 10:42:21;;;;;;;9.95;2.65;;;11.40;99.90;;;;;;5034431;28;20180;-80
2023/01/30 10:44:47;;;;;;;10.05;3.00;;;11.30;99.90;;;;;;5035125;28;20287;-79
2023/01/30 10:47:47;;;;;;;10.02;2.60;;;11.30;99.90;;;;;;5053352;28;20208;-80
2023/01/30 10:50:16;;;;;;;7.90;2.55;;;11.20;99.90;;;;;;5053875;28;20176;-80
2023/01/30 10:52:56;;;;;;;8.00;3.13;;;11.20;99.90;;;;;;5035618;28;20181;-80
2023/01/30 10:55:47;;;;;;;11.27;4.03;;;11.20;99.90;;;;;;5052533;28;20188;-80
2023/01/30 10:58:45;;;;;;;13.57;3.83;;;11.20;99.90;;;;;;5052239;28;20196;-80
2023/01/30 11:01:29;;;;;;;15.00;2.42;;;11.20;99.90;;;;;;5030820;28;20630;-80
2023/01/30 11:04:03;;;;;;;8.55;1.83;;;11.10;99.90;;;;;;5052205;28;20180;-80
2023/01/30 11:06:31;;;;;;;7.57;2.30;;;11.10;99.90;;;;;;5051162;28;20193;-80
2023/01/30 11:08:57;;;;;;;8.80;2.08;;;11.10;99.90;;;;;;5051559;28;20168;-80
2023/01/30 11:11:23;;;;;;;6.57;1.73;;;11.10;99.90;;;;;;5051755;28;20185;-81
2023/01/30 11:13:48;;;;;;;5.57;2.10;;;11.10;99.90;;;;;;5050822;28;20303;-81
2023/01/30 11:16:14;;;;;;;11.90;2.73;;;11.10;99.90;;;;;;5051306;28;20615;-80
2023/01/30 11:18:49;;;;;;;10.38;2.55;;;11.10;99.90;;;;;;5050084;28;20181;-81
2023/01/30 11:21:25;;;;;;;6.82;2.20;;;11.00;99.90;;;;;;5051071;28;20177;-80
2023/01/30 11:23:53;;;;;;;8.82;2.83;;;10.90;99.90;;;;;;5050953;28;20641;-81
2023/01/30 11:26:23;;;;;;;12.20;2.63;;;10.90;99.90;;;;;;5051667;28;20589;-80
2023/01/30 11:28:49;;;;;;;10.18;2.10;;;10.90;99.90;;;;;;5051605;28;20191;-79
2023/01/30 11:31:21;;;;;;;7.70;2.40;;;10.80;99.90;;;;;;5052341;28;20657;-79
2023/01/30 11:34:04;;;;;;;11.13;2.58;;;10.80;99.90;;;;;;5016654;28;20642;-79
2023/01/30 11:36:34;;;;;;;8.00;2.47;;;10.70;99.90;;;;;;5051875;28;20189;-80
2023/01/30 11:39:18;;;;;;;8.35;2.15;;;10.80;99.90;;;;;;5052181;28;20173;-80
2023/01/30 11:41:54;;;;;;;10.00;1.92;;;10.70;99.90;;;;;;5051508;28;20177;-80
2023/01/30 11:44:35;;;;;;;6.68;2.10;;;10.60;99.90;;;;;;5051820;28;20173;-81
2023/01/30 11:47:07;;;;;;;6.88;2.17;;;10.60;99.90;;;;;;5050896;28;20226;-80
2023/01/30 11:49:40;;;;;;;6.57;2.58;;;10.60;99.90;;;;;;5051286;28;20169;-80
2023/01/30 11:52:09;;;;;;;11.68;3.22;;;10.60;99.90;;;;;;5051872;28;20247;-80
2023/01/30 11:54:43;;;;;;;7.82;2.85;;;10.60;99.90;;;;;;5051043;28;20627;-80
2023/01/30 11:57:14;;;;;;;7.78;2.45;;;10.60;99.90;;;;;;5050582;28;20176;-81
2023/01/30 11:59:59;;;;;;;7.85;2.83;;;10.60;99.90;;;;;;5050491;28;20531;-80
2023/01/30 12:02:34;;;;;;;16.35;2.92;;;10.60;99.90;;;;;;5047591;28;20621;-81
2023/01/30 12:05:06;;;;;;;5.78;1.35;;;10.70;99.90;;;;;;5068477;28;20231;-81
2023/01/30 12:07:35;;;;;;;8.27;1.50;;;10.80;99.90;;;;;;5068062;28;20184;-81
2023/01/30 12:10:25;;;;;;;6.10;1.63;;;10.80;99.90;;;;;;5070275;28;20173;-81
2023/01/30 12:13:20;;;;;;;7.55;2.05;;;10.90;99.90;;;;;;5058367;28;20176;-81
2023/01/30 12:15:53;;;;;;;5.85;1.80;;;10.90;99.90;;;;;;5058725;28;20542;-81
2023/01/30 12:18:43;;;;;;;8.80;2.45;;;10.90;99.90;;;;;;5054325;28;20172;-81
2023/01/30 12:21:35;;;;;;;8.68;2.65;;;10.80;99.90;;;;;;5053601;28;20169;-81
2023/01/30 12:24:34;;;;;;;10.05;2.55;;;10.80;99.90;;;;;;5052473;28;20204;-81
2023/01/30 12:27:08;;;;;;;7.93;2.33;;;10.80;99.90;;;;;;5051891;28;20177;-81
2023/01/30 12:29:59;;;;;;;8.82;2.40;;;10.90;99.90;;;;;;5049357;28;20183;-81
2023/01/30 12:32:29;;;;;;;10.65;2.28;;;10.80;99.90;;;;;;5054071;28;20169;-80
2023/01/30 12:34:55;;;;;;;7.72;3.00;;;10.80;99.90;;;;;;5056839;28;20579;-79
2023/01/30 12:37:29;;;;;;;7.05;1.73;;;10.70;99.90;;;;;;5053507;28;20181;-80
2023/01/30 12:40:45;;;;;;;8.40;1.58;;;10.70;99.90;;;;;;5055608;28;20207;-80
2023/01/30 12:43:23;;;;;;;11.20;2.33;;;10.60;99.90;;;;;;5038079;28;20193;-81
2023/01/30 12:46:11;;;;;;;10.32;1.95;;;10.70;99.90;;;;;;5059764;28;20235;-81
2023/01/30 12:48:52;;;;;;;11.10;2.30;;;10.60;99.90;;;;;;5063009;28;20520;-79
2023/01/30 12:51:27;;;;;;;6.65;1.75;;;10.60;99.90;;;;;;5056745;28;20180;-79
2023/01/30 12:54:09;;;;;;;7.00;2.03;;;10.60;99.90;;;;;;5062543;28;20212;-80
2023/01/30 12:56:58;;;;;;;5.32;2.10;;;10.60;99.90;;;;;;5065930;28;20197;-80
2023/01/30 12:59:51;;;;;;;6.40;1.80;;;10.60;99.90;;;;;;5071206;28;20173;-81
2023/01/30 13:02:33;;;;;;;6.28;1.85;;;10.70;99.90;;;;;;5072002;28;20313;-81
2023/01/30 13:05:07;;;;;;;11.73;2.05;;;10.70;99.90;;;;;;5069041;28;20220;-81
2023/01/30 13:07:53;;;;;;;6.70;1.95;;;10.70;99.90;;;;;;5075130;28;20169;-80
2023/01/30 13:10:32;;;;;;;7.40;2.47;;;10.80;99.90;;;;;;5076869;28;20172;-80
2023/01/30 13:13:24;;;;;;;13.90;2.65;;;10.90;99.90;;;;;;5091906;28;20196;-80
2023/01/30 13:16:13;;;;;;;7.15;3.05;;;11.00;99.90;;;;;;5093973;28;20208;-81
2023/01/30 13:19:04;;;;;;;7.90;3.13;;;11.10;99.90;;;;;;5077924;28;20263;-79